Hollywood, Arkansas
Current Conditions -  °F | °C
As of 3:56 PM on Wednesday 28 Jan 2015 (Local Time) from KADF Reporting Station
Clear Clear  
Wind Chill: 71°   Ceiling: Unl
Heat Index: 71°   Visibility: 10mi
Dew Point: 50°   Wind: 7mph
Humidity: 48%   Direction: 140°SE
Pressure: 30.05"   Gusts: NA
Location:  34.0941°N, 93.0475°W
Report Text: KADF 282156Z AUTO 14006KT 10SM CLR 22/10 A3005 RMK AO2 T02160100 SLP189
Loading
Personal Weather Stations






























Interactive Weather Map New forecast layout! Learn more

10-Day Weather Forecast

Advertisements
Track Severe Weather on mobile